Briefing drone pour Decize

Rechercher une autre localisation

Conditions de vol :


Nous sommes le : Mercredi 26 janvier 2022
Il est 19:49 UTC (20:49 LT)

Lever de soleil : 06:51 UTC (07:51 LT)
Coucher de soleil : 17:06 UTC (18:06 LT)

Météo

L'essentiel des conditions de vol

VIGILANCE MÉTÉO FRANCE - Nièvre (58)
Pas de vigilances particulieres
METAR de LFQG
LFQG 261800Z AUTO 04004KT 360V090 6000 OVC003 M02/M02 Q1034

Date d'émission: 26/01/2022
Heure d'émission: 18:00 UTC
Vent: 040° (variable du 360° au 090°) pour 4 KT (7 km/h)
Visibilité horizontale: 6000 m
Plafond :
- Couvert à 300ft (91m)
Température: -2 °C
Point de rosée: -2 °C
Humidité: 100%
Pression (QNH): 1034 hPa
Prévision 24h pour Nevers (18 km)
Vent : 312° pour 2 KT (7 km/h)
Temperature Maxi: 6 °C
Temperature Min: 6 °C
Humidité : 62%
Condition : Ciel dégagé



Warning: count(): Parameter must be an array or an object that implements Countable in /homepages/6/d509196549/htdocs/droneoxygene/briefing.php on line 743
WEBCAM POUR DECIZE

Réglementation

Voler en sécurité

CARTES AERONAUTIQUE 1/500.000
CARTES VAC (LFQG)
SUP AIP




Chargement des AIP...
NOTAM (DECIZE + Terrain à proximité / FIR )




Chargement des NOTAMS...
CONTACT PREFECTURE 58


Avertissement : Les données mises à disposition sont indicatives. Oxygène Drone ne pourra être tenu responsable de dégâts causés aux biens et aux personnes.